sensor_id;sensor_type;location;lat;lon;timestamp;P1;durP1;ratioP1;P2;durP2;ratioP2
19547;SDS011;9919;58.014;11.826;2022-12-05T00:00:42;0.43;;;0.43;;
19547;SDS011;9919;58.014;11.826;2022-12-05T00:02:44;0.40;;;0.40;;
19547;SDS011;9919;58.014;11.826;2022-12-05T00:04:46;1.55;;;0.40;;
19547;SDS011;9919;58.014;11.826;2022-12-05T00:06:49;0.20;;;0.20;;
19547;SDS011;9919;58.014;11.826;2022-12-05T00:08:50;0.50;;;0.50;;
19547;SDS011;9919;58.014;11.826;2022-12-05T00:10:53;0.43;;;0.43;;
19547;SDS011;9919;58.014;11.826;2022-12-05T00:12:56;0.30;;;0.30;;
19547;SDS011;9919;58.014;11.826;2022-12-05T00:14:57;0.40;;;0.40;;
19547;SDS011;9919;58.014;11.826;2022-12-05T00:16:58;0.30;;;0.30;;
19547;SDS011;9919;58.014;11.826;2022-12-05T00:19:00;0.35;;;0.35;;
19547;SDS011;9919;58.014;11.826;2022-12-05T00:21:03;0.65;;;0.63;;
19547;SDS011;9919;58.014;11.826;2022-12-05T00:23:05;0.40;;;0.40;;
19547;SDS011;9919;58.014;11.826;2022-12-05T00:25:07;0.40;;;0.40;;
19547;SDS011;9919;58.014;11.826;2022-12-05T00:27:08;0.45;;;0.45;;
19547;SDS011;9919;58.014;11.826;2022-12-05T00:29:10;0.40;;;0.40;;
19547;SDS011;9919;58.014;11.826;2022-12-05T00:31:13;0.40;;;0.40;;
19547;SDS011;9919;58.014;11.826;2022-12-05T00:33:16;0.20;;;0.20;;
19547;SDS011;9919;58.014;11.826;2022-12-05T00:35:18;0.73;;;0.73;;
19547;SDS011;9919;58.014;11.826;2022-12-05T00:37:21;0.52;;;0.52;;
19547;SDS011;9919;58.014;11.826;2022-12-05T00:39:23;0.45;;;0.43;;
19547;SDS011;9919;58.014;11.826;2022-12-05T00:41:24;0.30;;;0.30;;
19547;SDS011;9919;58.014;11.826;2022-12-05T00:43:27;0.50;;;0.50;;
19547;SDS011;9919;58.014;11.826;2022-12-05T00:45:28;0.30;;;0.30;;
19547;SDS011;9919;58.014;11.826;2022-12-05T00:47:33;0.40;;;0.40;;
19547;SDS011;9919;58.014;11.826;2022-12-05T00:49:35;0.73;;;0.55;;
19547;SDS011;9919;58.014;11.826;2022-12-05T00:51:37;0.30;;;0.30;;
19547;SDS011;9919;58.014;11.826;2022-12-05T00:53:40;1.20;;;0.50;;
19547;SDS011;9919;58.014;11.826;2022-12-05T00:55:42;0.50;;;0.50;;
19547;SDS011;9919;58.014;11.826;2022-12-05T00:57:43;3.50;;;0.55;;
19547;SDS011;9919;58.014;11.826;2022-12-05T00:59:44;0.40;;;0.40;;
19547;SDS011;9919;58.014;11.826;2022-12-05T01:01:47;0.47;;;0.47;;
19547;SDS011;9919;58.014;11.826;2022-12-05T01:03:50;0.40;;;0.40;;
19547;SDS011;9919;58.014;11.826;2022-12-05T01:05:53;1.05;;;0.43;;
19547;SDS011;9919;58.014;11.826;2022-12-05T01:07:55;0.75;;;0.50;;
19547;SDS011;9919;58.014;11.826;2022-12-05T01:09:57;0.50;;;0.50;;
19547;SDS011;9919;58.014;11.826;2022-12-05T01:11:58;0.30;;;0.30;;
19547;SDS011;9919;58.014;11.826;2022-12-05T01:13:59;0.57;;;0.57;;
19547;SDS011;9919;58.014;11.826;2022-12-05T01:16:01;0.50;;;0.50;;
19547;SDS011;9919;58.014;11.826;2022-12-05T01:18:03;0.47;;;0.40;;
19547;SDS011;9919;58.014;11.826;2022-12-05T01:20:05;0.30;;;0.30;;
19547;SDS011;9919;58.014;11.826;2022-12-05T01:22:06;0.77;;;0.50;;
19547;SDS011;9919;58.014;11.826;2022-12-05T01:24:08;0.40;;;0.40;;
19547;SDS011;9919;58.014;11.826;2022-12-05T01:26:11;0.32;;;0.32;;
19547;SDS011;9919;58.014;11.826;2022-12-05T01:28:14;0.30;;;0.30;;
19547;SDS011;9919;58.014;11.826;2022-12-05T01:30:16;0.40;;;0.40;;
19547;SDS011;9919;58.014;11.826;2022-12-05T01:32:19;0.25;;;0.25;;
19547;SDS011;9919;58.014;11.826;2022-12-05T01:34:20;0.40;;;0.40;;
19547;SDS011;9919;58.014;11.826;2022-12-05T01:36:23;0.22;;;0.22;;
19547;SDS011;9919;58.014;11.826;2022-12-05T01:38:25;0.50;;;0.50;;
19547;SDS011;9919;58.014;11.826;2022-12-05T01:40:27;0.35;;;0.35;;
19547;SDS011;9919;58.014;11.826;2022-12-05T01:42:29;0.40;;;0.40;;
19547;SDS011;9919;58.014;11.826;2022-12-05T01:46:36;0.28;;;0.28;;
19547;SDS011;9919;58.014;11.826;2022-12-05T01:48:38;0.25;;;0.25;;
19547;SDS011;9919;58.014;11.826;2022-12-05T01:50:41;0.32;;;0.32;;
19547;SDS011;9919;58.014;11.826;2022-12-05T01:52:43;0.50;;;0.50;;
19547;SDS011;9919;58.014;11.826;2022-12-05T01:54:44;0.30;;;0.30;;
19547;SDS011;9919;58.014;11.826;2022-12-05T01:56:49;0.40;;;0.40;;
19547;SDS011;9919;58.014;11.826;2022-12-05T01:58:53;0.30;;;0.30;;
19547;SDS011;9919;58.014;11.826;2022-12-05T02:00:55;0.45;;;0.40;;
19547;SDS011;9919;58.014;11.826;2022-12-05T02:02:58;0.30;;;0.30;;
19547;SDS011;9919;58.014;11.826;2022-12-05T02:07:17;0.30;;;0.30;;
19547;SDS011;9919;58.014;11.826;2022-12-05T02:09:19;0.20;;;0.20;;
19547;SDS011;9919;58.014;11.826;2022-12-05T02:11:22;0.55;;;0.45;;
19547;SDS011;9919;58.014;11.826;2022-12-05T02:15:41;0.20;;;0.20;;
19547;SDS011;9919;58.014;11.826;2022-12-05T02:18:04;0.40;;;0.40;;
19547;SDS011;9919;58.014;11.826;2022-12-05T02:34:09;0.20;;;0.20;;
19547;SDS011;9919;58.014;11.826;2022-12-05T02:36:21;0.25;;;0.25;;
19547;SDS011;9919;58.014;11.826;2022-12-05T02:38:35;0.38;;;0.38;;
19547;SDS011;9919;58.014;11.826;2022-12-05T02:40:46;0.63;;;0.50;;
19547;SDS011;9919;58.014;11.826;2022-12-05T02:43:12;0.30;;;0.30;;
19547;SDS011;9919;58.014;11.826;2022-12-05T02:45:17;0.30;;;0.30;;
19547;SDS011;9919;58.014;11.826;2022-12-05T02:47:21;0.30;;;0.30;;
19547;SDS011;9919;58.014;11.826;2022-12-05T02:49:31;0.32;;;0.32;;
19547;SDS011;9919;58.014;11.826;2022-12-05T02:51:37;0.30;;;0.30;;
19547;SDS011;9919;58.014;11.826;2022-12-05T02:53:43;0.32;;;0.32;;
19547;SDS011;9919;58.014;11.826;2022-12-05T02:55:45;0.38;;;0.38;;
19547;SDS011;9919;58.014;11.826;2022-12-05T02:57:49;0.47;;;0.47;;
19547;SDS011;9919;58.014;11.826;2022-12-05T02:59:51;0.40;;;0.40;;
19547;SDS011;9919;58.014;11.826;2022-12-05T03:01:53;0.25;;;0.25;;
19547;SDS011;9919;58.014;11.826;2022-12-05T03:03:54;0.35;;;0.35;;
19547;SDS011;9919;58.014;11.826;2022-12-05T03:08:01;0.32;;;0.32;;
19547;SDS011;9919;58.014;11.826;2022-12-05T03:10:06;0.32;;;0.32;;
19547;SDS011;9919;58.014;11.826;2022-12-05T03:12:09;0.60;;;0.60;;
19547;SDS011;9919;58.014;11.826;2022-12-05T03:14:31;0.30;;;0.30;;
19547;SDS011;9919;58.014;11.826;2022-12-05T03:16:36;0.50;;;0.50;;
19547;SDS011;9919;58.014;11.826;2022-12-05T03:18:55;0.38;;;0.38;;
19547;SDS011;9919;58.014;11.826;2022-12-05T03:23:30;0.50;;;0.50;;
19547;SDS011;9919;58.014;11.826;2022-12-05T03:25:49;0.30;;;0.30;;
19547;SDS011;9919;58.014;11.826;2022-12-05T03:27:58;0.25;;;0.25;;
19547;SDS011;9919;58.014;11.826;2022-12-05T03:30:06;0.40;;;0.40;;
19547;SDS011;9919;58.014;11.826;2022-12-05T03:32:20;0.40;;;0.40;;
19547;SDS011;9919;58.014;11.826;2022-12-05T03:36:38;0.30;;;0.30;;
19547;SDS011;9919;58.014;11.826;2022-12-05T03:38:44;0.35;;;0.20;;
19547;SDS011;9919;58.014;11.826;2022-12-05T03:40:59;0.40;;;0.40;;
19547;SDS011;9919;58.014;11.826;2022-12-05T03:43:10;0.30;;;0.30;;
19547;SDS011;9919;58.014;11.826;2022-12-05T03:45:36;0.20;;;0.20;;
19547;SDS011;9919;58.014;11.826;2022-12-05T03:48:04;0.20;;;0.20;;
19547;SDS011;9919;58.014;11.826;2022-12-05T03:50:20;0.50;;;0.50;;
19547;SDS011;9919;58.014;11.826;2022-12-05T03:54:31;0.28;;;0.28;;
19547;SDS011;9919;58.014;11.826;2022-12-05T03:56:42;0.45;;;0.30;;
19547;SDS011;9919;58.014;11.826;2022-12-05T03:58:52;0.52;;;0.52;;
19547;SDS011;9919;58.014;11.826;2022-12-05T04:01:09;0.30;;;0.30;;
19547;SDS011;9919;58.014;11.826;2022-12-05T04:03:19;0.45;;;0.45;;
19547;SDS011;9919;58.014;11.826;2022-12-05T04:05:27;0.30;;;0.30;;
19547;SDS011;9919;58.014;11.826;2022-12-05T04:07:32;0.10;;;0.10;;
19547;SDS011;9919;58.014;11.826;2022-12-05T04:09:42;0.32;;;0.32;;
19547;SDS011;9919;58.014;11.826;2022-12-05T04:11:47;0.50;;;0.40;;
19547;SDS011;9919;58.014;11.826;2022-12-05T04:13:53;0.30;;;0.25;;
19547;SDS011;9919;58.014;11.826;2022-12-05T04:16:03;0.30;;;0.30;;
19547;SDS011;9919;58.014;11.826;2022-12-05T04:18:25;0.50;;;0.50;;
19547;SDS011;9919;58.014;11.826;2022-12-05T04:22:53;0.32;;;0.32;;
19547;SDS011;9919;58.014;11.826;2022-12-05T04:24:55;0.32;;;0.32;;
19547;SDS011;9919;58.014;11.826;2022-12-05T04:29:26;0.20;;;0.20;;
19547;SDS011;9919;58.014;11.826;2022-12-05T04:31:31;0.20;;;0.20;;
19547;SDS011;9919;58.014;11.826;2022-12-05T04:35:53;0.30;;;0.30;;
19547;SDS011;9919;58.014;11.826;2022-12-05T04:38:03;0.28;;;0.28;;
19547;SDS011;9919;58.014;11.826;2022-12-05T04:40:12;0.40;;;0.40;;
19547;SDS011;9919;58.014;11.826;2022-12-05T04:42:22;0.50;;;0.50;;
19547;SDS011;9919;58.014;11.826;2022-12-05T04:44:29;0.22;;;0.22;;
19547;SDS011;9919;58.014;11.826;2022-12-05T04:46:33;0.22;;;0.22;;
19547;SDS011;9919;58.014;11.826;2022-12-05T04:48:36;0.32;;;0.30;;
19547;SDS011;9919;58.014;11.826;2022-12-05T04:50:39;0.35;;;0.35;;
19547;SDS011;9919;58.014;11.826;2022-12-05T04:52:44;0.30;;;0.30;;
19547;SDS011;9919;58.014;11.826;2022-12-05T04:54:49;0.50;;;0.50;;
19547;SDS011;9919;58.014;11.826;2022-12-05T04:56:54;2.83;;;0.50;;
19547;SDS011;9919;58.014;11.826;2022-12-05T04:59:22;0.40;;;0.30;;
19547;SDS011;9919;58.014;11.826;2022-12-05T05:01:26;0.52;;;0.40;;
19547;SDS011;9919;58.014;11.826;2022-12-05T05:03:35;0.30;;;0.30;;
19547;SDS011;9919;58.014;11.826;2022-12-05T05:05:47;0.93;;;0.50;;
19547;SDS011;9919;58.014;11.826;2022-12-05T05:07:51;0.60;;;0.60;;
19547;SDS011;9919;58.014;11.826;2022-12-05T05:09:54;0.40;;;0.40;;
19547;SDS011;9919;58.014;11.826;2022-12-05T05:11:55;0.40;;;0.40;;
19547;SDS011;9919;58.014;11.826;2022-12-05T05:13:57;0.45;;;0.43;;
19547;SDS011;9919;58.014;11.826;2022-12-05T05:15:58;0.30;;;0.30;;
19547;SDS011;9919;58.014;11.826;2022-12-05T05:17:59;0.47;;;0.47;;
19547;SDS011;9919;58.014;11.826;2022-12-05T05:20:00;0.40;;;0.40;;
19547;SDS011;9919;58.014;11.826;2022-12-05T05:22:21;0.65;;;0.65;;
19547;SDS011;9919;58.014;11.826;2022-12-05T05:24:24;0.30;;;0.30;;
19547;SDS011;9919;58.014;11.826;2022-12-05T05:26:25;0.28;;;0.25;;
19547;SDS011;9919;58.014;11.826;2022-12-05T05:28:27;0.40;;;0.40;;
19547;SDS011;9919;58.014;11.826;2022-12-05T05:30:29;0.30;;;0.30;;
19547;SDS011;9919;58.014;11.826;2022-12-05T05:32:32;0.55;;;0.50;;
19547;SDS011;9919;58.014;11.826;2022-12-05T05:34:35;0.40;;;0.40;;
19547;SDS011;9919;58.014;11.826;2022-12-05T05:36:37;0.30;;;0.30;;
19547;SDS011;9919;58.014;11.826;2022-12-05T05:38:39;0.40;;;0.40;;
19547;SDS011;9919;58.014;11.826;2022-12-05T05:40:42;0.43;;;0.30;;
19547;SDS011;9919;58.014;11.826;2022-12-05T05:42:44;0.60;;;0.50;;
19547;SDS011;9919;58.014;11.826;2022-12-05T05:44:46;0.40;;;0.40;;
19547;SDS011;9919;58.014;11.826;2022-12-05T05:46:48;0.43;;;0.43;;
19547;SDS011;9919;58.014;11.826;2022-12-05T05:48:49;0.40;;;0.40;;
19547;SDS011;9919;58.014;11.826;2022-12-05T05:50:50;0.45;;;0.45;;
19547;SDS011;9919;58.014;11.826;2022-12-05T05:52:52;0.30;;;0.30;;
19547;SDS011;9919;58.014;11.826;2022-12-05T05:54:54;0.40;;;0.40;;
19547;SDS011;9919;58.014;11.826;2022-12-05T05:56:56;0.50;;;0.50;;
19547;SDS011;9919;58.014;11.826;2022-12-05T05:58:58;0.35;;;0.35;;
19547;SDS011;9919;58.014;11.826;2022-12-05T06:01:05;0.50;;;0.50;;
19547;SDS011;9919;58.014;11.826;2022-12-05T06:03:10;0.30;;;0.30;;
19547;SDS011;9919;58.014;11.826;2022-12-05T06:05:12;0.75;;;0.50;;
19547;SDS011;9919;58.014;11.826;2022-12-05T06:07:15;0.50;;;0.47;;
19547;SDS011;9919;58.014;11.826;2022-12-05T06:09:16;0.30;;;0.30;;
19547;SDS011;9919;58.014;11.826;2022-12-05T06:11:18;1.08;;;0.38;;
19547;SDS011;9919;58.014;11.826;2022-12-05T06:13:21;0.40;;;0.40;;
19547;SDS011;9919;58.014;11.826;2022-12-05T06:15:23;0.32;;;0.30;;
19547;SDS011;9919;58.014;11.826;2022-12-05T06:17:25;0.40;;;0.40;;
19547;SDS011;9919;58.014;11.826;2022-12-05T06:19:27;0.43;;;0.43;;
19547;SDS011;9919;58.014;11.826;2022-12-05T06:21:28;0.30;;;0.30;;
19547;SDS011;9919;58.014;11.826;2022-12-05T06:23:30;0.35;;;0.35;;
19547;SDS011;9919;58.014;11.826;2022-12-05T06:25:31;2.38;;;0.50;;
19547;SDS011;9919;58.014;11.826;2022-12-05T06:27:33;0.60;;;0.60;;
19547;SDS011;9919;58.014;11.826;2022-12-05T06:29:34;0.28;;;0.28;;
19547;SDS011;9919;58.014;11.826;2022-12-05T06:31:36;0.40;;;0.40;;
19547;SDS011;9919;58.014;11.826;2022-12-05T06:33:37;0.40;;;0.40;;
19547;SDS011;9919;58.014;11.826;2022-12-05T06:35:39;0.32;;;0.32;;
19547;SDS011;9919;58.014;11.826;2022-12-05T06:37:42;0.28;;;0.28;;
19547;SDS011;9919;58.014;11.826;2022-12-05T06:39:43;0.50;;;0.50;;
19547;SDS011;9919;58.014;11.826;2022-12-05T06:41:45;0.40;;;0.40;;
19547;SDS011;9919;58.014;11.826;2022-12-05T06:43:46;0.32;;;0.32;;
19547;SDS011;9919;58.014;11.826;2022-12-05T06:45:48;0.60;;;0.60;;
19547;SDS011;9919;58.014;11.826;2022-12-05T06:47:50;0.40;;;0.40;;
19547;SDS011;9919;58.014;11.826;2022-12-05T06:49:52;1.45;;;0.55;;
19547;SDS011;9919;58.014;11.826;2022-12-05T06:51:54;0.20;;;0.20;;
19547;SDS011;9919;58.014;11.826;2022-12-05T06:53:55;0.45;;;0.45;;
19547;SDS011;9919;58.014;11.826;2022-12-05T06:55:57;0.22;;;0.22;;
19547;SDS011;9919;58.014;11.826;2022-12-05T06:58:03;0.50;;;0.50;;
19547;SDS011;9919;58.014;11.826;2022-12-05T07:00:04;0.40;;;0.40;;
19547;SDS011;9919;58.014;11.826;2022-12-05T07:02:25;0.38;;;0.38;;
19547;SDS011;9919;58.014;11.826;2022-12-05T07:04:27;1.17;;;0.30;;
19547;SDS011;9919;58.014;11.826;2022-12-05T07:06:29;1.65;;;0.40;;
19547;SDS011;9919;58.014;11.826;2022-12-05T07:08:30;0.32;;;0.32;;
19547;SDS011;9919;58.014;11.826;2022-12-05T07:10:32;0.35;;;0.30;;
19547;SDS011;9919;58.014;11.826;2022-12-05T07:12:34;0.52;;;0.52;;
19547;SDS011;9919;58.014;11.826;2022-12-05T07:14:35;1.08;;;0.47;;
19547;SDS011;9919;58.014;11.826;2022-12-05T07:16:36;0.30;;;0.30;;
19547;SDS011;9919;58.014;11.826;2022-12-05T07:18:38;0.25;;;0.25;;
19547;SDS011;9919;58.014;11.826;2022-12-05T07:20:39;0.40;;;0.40;;
19547;SDS011;9919;58.014;11.826;2022-12-05T07:22:40;4.97;;;0.52;;
19547;SDS011;9919;58.014;11.826;2022-12-05T07:24:43;0.70;;;0.70;;
19547;SDS011;9919;58.014;11.826;2022-12-05T07:26:44;0.35;;;0.35;;
19547;SDS011;9919;58.014;11.826;2022-12-05T07:28:46;0.30;;;0.30;;
19547;SDS011;9919;58.014;11.826;2022-12-05T07:30:48;1.52;;;0.38;;
19547;SDS011;9919;58.014;11.826;2022-12-05T07:32:58;0.40;;;0.40;;
19547;SDS011;9919;58.014;11.826;2022-12-05T07:34:59;0.57;;;0.38;;
19547;SDS011;9919;58.014;11.826;2022-12-05T07:37:00;0.60;;;0.60;;
19547;SDS011;9919;58.014;11.826;2022-12-05T07:39:02;0.28;;;0.28;;
19547;SDS011;9919;58.014;11.826;2022-12-05T07:41:04;0.30;;;0.30;;
19547;SDS011;9919;58.014;11.826;2022-12-05T07:43:06;0.47;;;0.47;;
19547;SDS011;9919;58.014;11.826;2022-12-05T07:45:08;0.55;;;0.30;;
19547;SDS011;9919;58.014;11.826;2022-12-05T07:47:10;0.40;;;0.40;;
19547;SDS011;9919;58.014;11.826;2022-12-05T07:49:11;0.50;;;0.30;;
19547;SDS011;9919;58.014;11.826;2022-12-05T07:51:15;0.80;;;0.57;;
19547;SDS011;9919;58.014;11.826;2022-12-05T07:53:16;0.30;;;0.30;;
19547;SDS011;9919;58.014;11.826;2022-12-05T07:55:18;0.57;;;0.40;;
19547;SDS011;9919;58.014;11.826;2022-12-05T07:57:19;0.50;;;0.50;;
19547;SDS011;9919;58.014;11.826;2022-12-05T07:59:21;2.47;;;0.57;;
19547;SDS011;9919;58.014;11.826;2022-12-05T08:01:23;0.68;;;0.40;;
19547;SDS011;9919;58.014;11.826;2022-12-05T08:03:26;0.32;;;0.32;;
19547;SDS011;9919;58.014;11.826;2022-12-05T08:05:28;1.30;;;0.45;;
19547;SDS011;9919;58.014;11.826;2022-12-05T08:07:29;0.50;;;0.50;;
19547;SDS011;9919;58.014;11.826;2022-12-05T08:09:31;1.35;;;0.40;;
19547;SDS011;9919;58.014;11.826;2022-12-05T08:11:33;0.40;;;0.40;;
19547;SDS011;9919;58.014;11.826;2022-12-05T08:13:35;0.55;;;0.55;;
19547;SDS011;9919;58.014;11.826;2022-12-05T08:15:36;0.63;;;0.63;;
19547;SDS011;9919;58.014;11.826;2022-12-05T08:17:38;1.40;;;0.40;;
19547;SDS011;9919;58.014;11.826;2022-12-05T08:19:39;1.70;;;0.82;;
19547;SDS011;9919;58.014;11.826;2022-12-05T08:21:40;1.02;;;0.88;;
19547;SDS011;9919;58.014;11.826;2022-12-05T08:23:42;1.10;;;1.00;;
19547;SDS011;9919;58.014;11.826;2022-12-05T08:25:44;2.20;;;1.25;;
19547;SDS011;9919;58.014;11.826;2022-12-05T08:27:45;7.20;;;1.40;;
19547;SDS011;9919;58.014;11.826;2022-12-05T08:29:48;1.70;;;1.05;;
19547;SDS011;9919;58.014;11.826;2022-12-05T08:31:50;3.13;;;1.50;;
19547;SDS011;9919;58.014;11.826;2022-12-05T08:33:52;4.05;;;1.23;;
19547;SDS011;9919;58.014;11.826;2022-12-05T08:35:55;2.00;;;1.30;;
19547;SDS011;9919;58.014;11.826;2022-12-05T08:37:56;2.78;;;1.23;;
19547;SDS011;9919;58.014;11.826;2022-12-05T08:39:58;2.88;;;1.48;;
19547;SDS011;9919;58.014;11.826;2022-12-05T08:41:59;2.97;;;1.45;;
19547;SDS011;9919;58.014;11.826;2022-12-05T08:44:03;1.60;;;1.33;;
19547;SDS011;9919;58.014;11.826;2022-12-05T08:46:05;3.75;;;1.65;;
19547;SDS011;9919;58.014;11.826;2022-12-05T08:48:07;1.55;;;1.00;;
19547;SDS011;9919;58.014;11.826;2022-12-05T08:50:08;3.05;;;1.20;;
19547;SDS011;9919;58.014;11.826;2022-12-05T08:52:11;1.90;;;1.00;;
19547;SDS011;9919;58.014;11.826;2022-12-05T08:54:12;0.95;;;0.85;;
19547;SDS011;9919;58.014;11.826;2022-12-05T08:56:14;2.85;;;1.55;;
19547;SDS011;9919;58.014;11.826;2022-12-05T08:58:15;0.95;;;0.70;;
19547;SDS011;9919;58.014;11.826;2022-12-05T09:00:17;1.70;;;1.05;;
19547;SDS011;9919;58.014;11.826;2022-12-05T09:02:18;2.08;;;1.23;;
19547;SDS011;9919;58.014;11.826;2022-12-05T09:04:20;0.50;;;0.50;;
19547;SDS011;9919;58.014;11.826;2022-12-05T09:06:23;3.13;;;1.10;;
19547;SDS011;9919;58.014;11.826;2022-12-05T09:08:25;1.15;;;1.05;;
19547;SDS011;9919;58.014;11.826;2022-12-05T09:10:26;1.73;;;0.88;;
19547;SDS011;9919;58.014;11.826;2022-12-05T09:12:28;2.40;;;1.27;;
19547;SDS011;9919;58.014;11.826;2022-12-05T09:14:30;1.10;;;0.90;;
19547;SDS011;9919;58.014;11.826;2022-12-05T09:16:33;1.25;;;1.02;;
19547;SDS011;9919;58.014;11.826;2022-12-05T09:18:35;2.53;;;1.17;;
19547;SDS011;9919;58.014;11.826;2022-12-05T09:20:38;1.40;;;0.75;;
19547;SDS011;9919;58.014;11.826;2022-12-05T09:22:39;1.38;;;0.93;;
19547;SDS011;9919;58.014;11.826;2022-12-05T09:24:41;1.30;;;0.75;;
19547;SDS011;9919;58.014;11.826;2022-12-05T09:26:43;0.77;;;0.73;;
19547;SDS011;9919;58.014;11.826;2022-12-05T09:28:45;1.58;;;0.93;;
19547;SDS011;9919;58.014;11.826;2022-12-05T09:30:55;1.48;;;0.98;;
19547;SDS011;9919;58.014;11.826;2022-12-05T09:32:57;2.13;;;0.88;;
19547;SDS011;9919;58.014;11.826;2022-12-05T09:34:59;2.33;;;1.10;;
19547;SDS011;9919;58.014;11.826;2022-12-05T09:37:00;0.77;;;0.77;;
19547;SDS011;9919;58.014;11.826;2022-12-05T09:39:05;1.40;;;0.88;;
19547;SDS011;9919;58.014;11.826;2022-12-05T09:43:25;1.45;;;1.02;;
19547;SDS011;9919;58.014;11.826;2022-12-05T09:45:35;2.75;;;0.90;;
19547;SDS011;9919;58.014;11.826;2022-12-05T09:49:46;1.55;;;0.82;;
19547;SDS011;9919;58.014;11.826;2022-12-05T09:52:07;0.93;;;0.77;;
19547;SDS011;9919;58.014;11.826;2022-12-05T09:54:13;2.67;;;0.95;;
19547;SDS011;9919;58.014;11.826;2022-12-05T09:56:28;1.10;;;1.00;;
19547;SDS011;9919;58.014;11.826;2022-12-05T10:00:45;2.03;;;1.10;;
19547;SDS011;9919;58.014;11.826;2022-12-05T10:05:20;1.10;;;0.80;;
19547;SDS011;9919;58.014;11.826;2022-12-05T10:07:38;0.85;;;0.70;;
19547;SDS011;9919;58.014;11.826;2022-12-05T10:12:26;0.57;;;0.57;;
19547;SDS011;9919;58.014;11.826;2022-12-05T10:16:51;1.80;;;0.82;;
19547;SDS011;9919;58.014;11.826;2022-12-05T10:18:59;2.30;;;1.10;;
19547;SDS011;9919;58.014;11.826;2022-12-05T10:23:16;1.70;;;0.80;;
19547;SDS011;9919;58.014;11.826;2022-12-05T10:25:20;0.80;;;0.80;;
19547;SDS011;9919;58.014;11.826;2022-12-05T10:27:30;0.75;;;0.73;;
19547;SDS011;9919;58.014;11.826;2022-12-05T10:31:43;1.70;;;0.93;;
19547;SDS011;9919;58.014;11.826;2022-12-05T10:33:47;0.55;;;0.55;;
19547;SDS011;9919;58.014;11.826;2022-12-05T10:35:52;0.77;;;0.77;;
19547;SDS011;9919;58.014;11.826;2022-12-05T10:38:02;1.05;;;0.82;;
19547;SDS011;9919;58.014;11.826;2022-12-05T10:40:10;0.80;;;0.65;;
19547;SDS011;9919;58.014;11.826;2022-12-05T10:42:26;1.00;;;1.00;;
19547;SDS011;9919;58.014;11.826;2022-12-05T10:44:30;1.17;;;0.70;;
19547;SDS011;9919;58.014;11.826;2022-12-05T10:46:33;1.13;;;0.82;;
19547;SDS011;9919;58.014;11.826;2022-12-05T10:48:35;0.90;;;0.70;;
19547;SDS011;9919;58.014;11.826;2022-12-05T10:50:38;0.65;;;0.60;;
19547;SDS011;9919;58.014;11.826;2022-12-05T10:52:41;0.50;;;0.50;;
19547;SDS011;9919;58.014;11.826;2022-12-05T10:54:47;1.20;;;0.68;;
19547;SDS011;9919;58.014;11.826;2022-12-05T10:56:57;0.40;;;0.40;;
19547;SDS011;9919;58.014;11.826;2022-12-05T10:58:58;0.88;;;0.70;;
19547;SDS011;9919;58.014;11.826;2022-12-05T11:01:06;0.77;;;0.50;;
19547;SDS011;9919;58.014;11.826;2022-12-05T11:03:19;2.70;;;0.57;;
19547;SDS011;9919;58.014;11.826;2022-12-05T11:05:29;0.70;;;0.70;;
19547;SDS011;9919;58.014;11.826;2022-12-05T11:09:49;1.00;;;0.60;;
19547;SDS011;9919;58.014;11.826;2022-12-05T11:11:56;0.95;;;0.90;;
19547;SDS011;9919;58.014;11.826;2022-12-05T11:14:01;0.50;;;0.50;;
19547;SDS011;9919;58.014;11.826;2022-12-05T11:16:04;1.75;;;0.85;;
19547;SDS011;9919;58.014;11.826;2022-12-05T11:18:17;0.77;;;0.60;;
19547;SDS011;9919;58.014;11.826;2022-12-05T11:22:32;1.98;;;0.60;;
19547;SDS011;9919;58.014;11.826;2022-12-05T11:24:35;0.73;;;0.73;;
19547;SDS011;9919;58.014;11.826;2022-12-05T11:26:37;1.27;;;0.80;;
19547;SDS011;9919;58.014;11.826;2022-12-05T11:28:38;3.00;;;0.55;;
19547;SDS011;9919;58.014;11.826;2022-12-05T11:30:41;1.02;;;0.80;;
19547;SDS011;9919;58.014;11.826;2022-12-05T11:35:24;0.50;;;0.50;;
19547;SDS011;9919;58.014;11.826;2022-12-05T11:37:28;1.27;;;0.80;;
19547;SDS011;9919;58.014;11.826;2022-12-05T11:39:37;0.60;;;0.60;;
19547;SDS011;9919;58.014;11.826;2022-12-05T11:41:45;1.73;;;0.90;;
19547;SDS011;9919;58.014;11.826;2022-12-05T11:48:59;0.70;;;0.70;;
19547;SDS011;9919;58.014;11.826;2022-12-05T11:51:44;0.80;;;0.70;;
19547;SDS011;9919;58.014;11.826;2022-12-05T11:53:54;0.45;;;0.45;;
19547;SDS011;9919;58.014;11.826;2022-12-05T11:58:18;0.98;;;0.70;;
19547;SDS011;9919;58.014;11.826;2022-12-05T12:00:54;0.30;;;0.30;;
19547;SDS011;9919;58.014;11.826;2022-12-05T12:31:46;0.57;;;0.57;;
19547;SDS011;9919;58.014;11.826;2022-12-05T12:40:52;3.38;;;0.70;;
19547;SDS011;9919;58.014;11.826;2022-12-05T12:43:06;1.95;;;0.68;;
19547;SDS011;9919;58.014;11.826;2022-12-05T12:45:38;1.30;;;0.20;;
19547;SDS011;9919;58.014;11.826;2022-12-05T12:50:35;0.55;;;0.40;;
19547;SDS011;9919;58.014;11.826;2022-12-05T12:55:02;0.57;;;0.32;;
19547;SDS011;9919;58.014;11.826;2022-12-05T12:59:48;1.65;;;0.40;;
19547;SDS011;9919;58.014;11.826;2022-12-05T13:04:06;1.48;;;0.70;;
19547;SDS011;9919;58.014;11.826;2022-12-05T13:06:22;0.30;;;0.30;;
19547;SDS011;9919;58.014;11.826;2022-12-05T13:11:02;1.20;;;0.70;;
19547;SDS011;9919;58.014;11.826;2022-12-05T13:13:10;0.63;;;0.40;;
19547;SDS011;9919;58.014;11.826;2022-12-05T13:15:16;0.30;;;0.30;;
19547;SDS011;9919;58.014;11.826;2022-12-05T13:17:21;0.50;;;0.50;;
19547;SDS011;9919;58.014;11.826;2022-12-05T13:21:50;0.63;;;0.52;;
19547;SDS011;9919;58.014;11.826;2022-12-05T13:23:53;0.80;;;0.50;;
19547;SDS011;9919;58.014;11.826;2022-12-05T13:25:56;0.88;;;0.60;;
19547;SDS011;9919;58.014;11.826;2022-12-05T13:28:00;0.40;;;0.40;;
19547;SDS011;9919;58.014;11.826;2022-12-05T13:30:03;0.60;;;0.57;;
19547;SDS011;9919;58.014;11.826;2022-12-05T13:32:05;0.60;;;0.60;;
19547;SDS011;9919;58.014;11.826;2022-12-05T13:34:44;1.67;;;0.68;;
19547;SDS011;9919;58.014;11.826;2022-12-05T13:36:45;0.60;;;0.60;;
19547;SDS011;9919;58.014;11.826;2022-12-05T13:39:18;0.57;;;0.57;;
19547;SDS011;9919;58.014;11.826;2022-12-05T13:41:40;0.40;;;0.40;;
19547;SDS011;9919;58.014;11.826;2022-12-05T13:44:05;0.50;;;0.50;;
19547;SDS011;9919;58.014;11.826;2022-12-05T13:46:11;0.30;;;0.30;;
19547;SDS011;9919;58.014;11.826;2022-12-05T13:48:22;1.50;;;0.77;;
19547;SDS011;9919;58.014;11.826;2022-12-05T13:53:05;1.20;;;0.55;;
19547;SDS011;9919;58.014;11.826;2022-12-05T14:01:59;0.85;;;0.70;;
19547;SDS011;9919;58.014;11.826;2022-12-05T14:04:00;0.40;;;0.40;;
19547;SDS011;9919;58.014;11.826;2022-12-05T14:06:03;0.50;;;0.50;;
19547;SDS011;9919;58.014;11.826;2022-12-05T14:12:30;0.80;;;0.40;;
19547;SDS011;9919;58.014;11.826;2022-12-05T14:16:57;0.40;;;0.40;;
19547;SDS011;9919;58.014;11.826;2022-12-05T14:21:33;0.43;;;0.43;;
19547;SDS011;9919;58.014;11.826;2022-12-05T14:23:54;0.43;;;0.40;;
19547;SDS011;9919;58.014;11.826;2022-12-05T14:33:25;1.63;;;0.60;;
19547;SDS011;9919;58.014;11.826;2022-12-05T14:37:51;0.50;;;0.45;;
19547;SDS011;9919;58.014;11.826;2022-12-05T14:39:57;1.40;;;0.55;;
19547;SDS011;9919;58.014;11.826;2022-12-05T14:42:00;1.48;;;0.63;;
19547;SDS011;9919;58.014;11.826;2022-12-05T14:44:04;4.15;;;0.93;;
19547;SDS011;9919;58.014;11.826;2022-12-05T14:46:27;0.30;;;0.30;;
19547;SDS011;9919;58.014;11.826;2022-12-05T14:50:42;3.65;;;0.55;;
19547;SDS011;9919;58.014;11.826;2022-12-05T14:53:12;0.50;;;0.50;;
19547;SDS011;9919;58.014;11.826;2022-12-05T14:55:25;0.47;;;0.47;;
19547;SDS011;9919;58.014;11.826;2022-12-05T14:57:26;1.10;;;0.52;;
19547;SDS011;9919;58.014;11.826;2022-12-05T14:59:33;0.88;;;0.60;;
19547;SDS011;9919;58.014;11.826;2022-12-05T15:01:54;0.80;;;0.40;;
19547;SDS011;9919;58.014;11.826;2022-12-05T15:04:14;0.50;;;0.50;;
19547;SDS011;9919;58.014;11.826;2022-12-05T15:06:22;0.20;;;0.20;;